Pagina principale
METAR-TAF:

METAR-TAF

Aeroporti :

Ağrı, Turchia

latitudine: 39-39-16N, longitudine: 43-01-38E, altezza: 1665 m

Osservazione

Il bollettino è stato emesso 15 ore e 12 minuti fa, alle 13:50 UTC
Vento 14 kt da sud-ovest
Temperature 7°C
Umidità 66%
Pressione 1005 hPa
Visibilità 10 km o più
Nuvoloso ad un'altezza di 3500 ft

METAR: LTCO 291350Z 23014KT 9999 BKN035 07/01 Q1005

Ora: 08:02 (05:02 UTC)

Previsione

Il bollettino è stato emesso 3 ore e 22 minuti fa, alle 01:40 UTC
Previsione valida dal 30 alle 03 UTC al 30 alle 12 UTC
Vento 6 kt da sud-ovest
Visibilità 10 km o più
Nuvoloso ad un'altezza di 3500 ft
Nuvoloso ad un'altezza di 7000 ft
Probabilità 30% :
Temporaneamente
dal 30 alle 10 UTC al 30 alle 12 UTC
rovesci di pioggia

TAF: LTCO 300140Z 3003/3012 22006KT 9999 BKN035 BKN070 PROB30 TEMPO 3010/3012 -SHRA

Osservazioni e previsioni meteorologiche di più di 4000 aeroporti (messaggi METAR e TAF).

Le stazioni disponibili sono rappresentate dai dischi gialli e rossi sulla carta.

Puntare il mouse per vedere il nome della stazione.

Clicca sopra per visualizzare le osservazioni e previsioni meteorologiche.

Per cambiare la mappa : fare clic sui pulsanti verdi con una croce nera per ingrandire, il pulsante verde con un trattino per diminuire, o sulla freccia verde per le mappe adiacenti.


METAR-TAF: